createdAt,value
2023-01-19T00:00:34.512Z,-4.36
2023-01-19T00:05:36.792Z,-4.40
2023-01-19T00:10:40.306Z,-4.43
2023-01-19T00:15:42.485Z,-4.54
2023-01-19T00:20:45.441Z,-4.37
2023-01-19T00:25:48.736Z,-4.30
2023-01-19T00:30:50.847Z,-4.45
2023-01-19T00:35:53.804Z,-4.57
2023-01-19T00:40:57.237Z,-4.60
2023-01-19T00:45:59.212Z,-4.53
2023-01-19T00:51:01.433Z,-4.77
2023-01-19T00:56:05.568Z,-4.84
2023-01-19T01:01:07.652Z,-5.08
2023-01-19T01:06:09.866Z,-5.23
2023-01-19T01:11:13.370Z,-5.26
2023-01-19T01:16:16.459Z,-5.32
2023-01-19T01:21:18.571Z,-5.28
2023-01-19T01:26:22.207Z,-5.41
2023-01-19T01:31:24.608Z,-5.34
2023-01-19T01:36:26.742Z,-5.23
2023-01-19T01:41:30.506Z,-5.34
2023-01-19T01:46:32.789Z,-5.53
2023-01-19T01:51:40.160Z,-5.63
2023-01-19T01:56:45.642Z,-5.51
2023-01-19T02:01:47.856Z,-5.42
2023-01-19T02:06:50.614Z,-5.42
2023-01-19T02:11:55.108Z,-5.45
2023-01-19T02:16:57.523Z,-5.36
2023-01-19T02:22:05.701Z,-5.56
2023-01-19T02:27:10.125Z,-5.51
2023-01-19T02:32:12.098Z,-5.25
2023-01-19T02:37:17.446Z,-5.38
2023-01-19T02:42:25.897Z,-5.49
2023-01-19T02:47:37.727Z,-5.25
2023-01-19T02:52:39.895Z,-5.08
2023-01-19T02:57:59.239Z,-4.73
2023-01-19T03:03:17.208Z,-4.73
2023-01-19T03:08:30.958Z,-4.61
2023-01-19T03:13:44.742Z,-4.75
2023-01-19T03:18:52.390Z,-4.76
2023-01-19T03:23:58.780Z,-4.69
2023-01-19T03:29:03.666Z,-4.97
2023-01-19T03:34:08.400Z,-5.23
2023-01-19T03:39:13.230Z,-5.17
2023-01-19T03:44:17.433Z,-5.03
2023-01-19T03:49:19.806Z,-4.97
2023-01-19T03:54:21.939Z,-4.91
2023-01-19T03:59:25.327Z,-4.85
2023-01-19T04:04:27.468Z,-4.87
2023-01-19T04:09:29.686Z,-4.89
2023-01-19T04:14:33.360Z,-4.75
2023-01-19T04:19:35.608Z,-4.74
2023-01-19T04:24:37.697Z,-4.83
2023-01-19T04:29:41.162Z,-4.87
2023-01-19T04:34:43.376Z,-4.98
2023-01-19T04:39:45.909Z,-5.03
2023-01-19T04:44:49.464Z,-5.04
2023-01-19T04:49:51.632Z,-5.03
2023-01-19T04:54:53.516Z,-4.93
2023-01-19T04:59:57.358Z,-5.05
2023-01-19T05:04:59.580Z,-4.90
2023-01-19T05:10:01.591Z,-4.76
2023-01-19T05:15:06.013Z,-4.66
2023-01-19T05:20:10.539Z,-4.73
2023-01-19T05:25:12.605Z,-4.66
2023-01-19T05:30:16.924Z,-4.73
2023-01-19T05:35:27.803Z,-4.75
2023-01-19T05:40:34.209Z,-4.71
2023-01-19T05:45:37.687Z,-4.76
2023-01-19T05:50:39.822Z,-4.74
2023-01-19T05:55:42.144Z,-4.72
2023-01-19T06:00:45.805Z,-4.62
2023-01-19T06:05:47.886Z,-4.61
2023-01-19T06:10:50.164Z,-4.57
2023-01-19T06:15:58.126Z,-4.56
2023-01-19T06:21:03.761Z,-4.55
2023-01-19T06:26:06.088Z,-4.63
2023-01-19T06:31:09.728Z,-4.63
2023-01-19T06:36:11.632Z,-4.67
2023-01-19T06:41:13.647Z,-4.58
2023-01-19T06:46:17.323Z,-4.51
2023-01-19T06:51:19.477Z,-4.58
2023-01-19T06:56:21.655Z,-4.62
2023-01-19T07:01:25.112Z,-4.66
2023-01-19T07:06:27.392Z,-4.69
2023-01-19T07:11:33.054Z,-4.79
2023-01-19T07:16:36.498Z,-4.93
2023-01-19T07:21:38.419Z,-4.88
2023-01-19T07:26:40.151Z,-4.82
2023-01-19T07:31:43.345Z,-4.77
2023-01-19T07:36:45.664Z,-4.64
2023-01-19T07:41:48.458Z,-4.48
2023-01-19T07:46:51.554Z,-4.42
2023-01-19T07:51:53.283Z,-4.47
2023-01-19T07:56:55.215Z,-4.45
2023-01-19T08:01:58.674Z,-4.45
2023-01-19T08:07:00.525Z,-4.45
2023-01-19T08:12:02.888Z,-4.36
2023-01-19T08:17:06.885Z,-4.24
2023-01-19T08:22:09.842Z,-4.05
2023-01-19T08:27:15.096Z,-3.89
2023-01-19T08:32:18.335Z,-3.83
2023-01-19T08:37:20.578Z,-3.72
2023-01-19T08:42:22.603Z,-3.64
2023-01-19T08:47:26.119Z,-3.52
2023-01-19T08:52:27.887Z,-3.32
2023-01-19T08:57:29.971Z,-3.09
2023-01-19T09:02:33.237Z,-2.93
2023-01-19T09:07:35.771Z,-2.77
2023-01-19T09:12:38.321Z,-2.53
2023-01-19T09:17:42.070Z,-2.38
2023-01-19T09:22:44.616Z,-2.16
2023-01-19T09:27:46.771Z,-2.02
2023-01-19T09:32:50.096Z,-1.84
2023-01-19T09:37:51.870Z,-1.64
2023-01-19T09:42:57.169Z,-1.47
2023-01-19T09:48:04.482Z,-1.30
2023-01-19T09:53:16.712Z,-1.22
2023-01-19T09:58:18.872Z,-1.02
2023-01-19T10:03:24.222Z,-0.90
2023-01-19T10:08:35.017Z,-0.41
2023-01-19T10:13:44.115Z,0.17
2023-01-19T10:18:49.410Z,5.64
2023-01-19T10:23:56.115Z,5.79
2023-01-19T10:29:02.040Z,7.87
2023-01-19T10:34:05.236Z,7.47
2023-01-19T10:39:12.092Z,8.78
2023-01-19T10:44:24.141Z,7.81
2023-01-19T10:49:29.465Z,5.99
2023-01-19T10:54:34.064Z,6.83
2023-01-19T10:59:38.323Z,8.31
2023-01-19T11:04:41.733Z,8.05
2023-01-19T11:09:43.936Z,9.67
2023-01-19T11:14:46.984Z,11.20
2023-01-19T11:19:59.477Z,9.31
2023-01-19T11:25:04.798Z,9.45
2023-01-19T11:30:17.478Z,9.94
2023-01-19T11:35:35.145Z,12.18
2023-01-19T11:40:37.104Z,11.22
2023-01-19T11:45:40.150Z,9.76
2023-01-19T11:50:45.075Z,6.67
2023-01-19T11:55:52.688Z,4.46
2023-01-19T12:00:58.696Z,3.64
2023-01-19T12:06:09.219Z,3.34
2023-01-19T12:11:16.283Z,3.20
2023-01-19T12:16:21.039Z,3.24
2023-01-19T12:21:24.251Z,2.91
2023-01-19T12:26:31.047Z,3.21
2023-01-19T12:31:33.616Z,3.62
2023-01-19T12:36:38.307Z,3.29
2023-01-19T12:41:41.589Z,3.55
2023-01-19T12:46:45.484Z,3.83
2023-01-19T12:51:51.246Z,3.64
2023-01-19T12:56:59.793Z,3.56
2023-01-19T13:02:41.275Z,3.51
2023-01-19T13:08:22.522Z,3.66
2023-01-19T13:13:26.967Z,3.63
2023-01-19T13:18:31.617Z,3.65
2023-01-19T13:23:53.361Z,3.52
2023-01-19T13:28:58.766Z,3.00
2023-01-19T13:34:02.695Z,2.80
2023-01-19T13:39:12.558Z,2.67
2023-01-19T13:44:21.311Z,2.55
2023-01-19T13:49:29.625Z,2.58
2023-01-19T13:54:33.203Z,2.57
2023-01-19T13:59:35.677Z,2.41
2023-01-19T14:04:37.422Z,2.13
2023-01-19T14:09:41.016Z,1.84
2023-01-19T14:14:44.294Z,1.66
2023-01-19T14:19:50.451Z,1.59
2023-01-19T14:24:53.603Z,1.40
2023-01-19T14:30:19.227Z,1.30
2023-01-19T14:35:24.775Z,1.19
2023-01-19T14:40:29.235Z,1.15
2023-01-19T14:45:34.869Z,1.21
2023-01-19T14:50:39.802Z,0.93
2023-01-19T14:55:47.641Z,0.91
2023-01-19T15:00:50.935Z,0.74
2023-01-19T15:05:55.801Z,0.62
2023-01-19T15:11:03.727Z,0.42
2023-01-19T15:16:06.451Z,0.32
2023-01-19T15:21:11.925Z,0.33
2023-01-19T15:26:16.993Z,0.29
2023-01-19T15:31:21.349Z,0.23
2023-01-19T15:36:26.225Z,0.20
2023-01-19T15:41:29.515Z,0.18
2023-01-19T15:46:31.484Z,0.18
2023-01-19T15:51:33.229Z,0.21
2023-01-19T15:56:36.439Z,0.22
2023-01-19T16:01:39.928Z,0.26
2023-01-19T16:06:42.091Z,0.22
2023-01-19T16:11:46.087Z,0.22
2023-01-19T16:16:48.251Z,0.24
2023-01-19T16:21:50.311Z,0.27
2023-01-19T16:26:53.844Z,0.33
2023-01-19T16:31:55.888Z,0.37
2023-01-19T16:36:57.766Z,0.37
2023-01-19T16:42:00.891Z,0.35
2023-01-19T16:47:03.101Z,0.36
2023-01-19T16:52:04.951Z,0.41
2023-01-19T16:57:09.102Z,0.42
2023-01-19T17:02:11.410Z,0.38
2023-01-19T17:07:13.584Z,0.41
2023-01-19T17:12:17.142Z,0.37
2023-01-19T17:17:18.916Z,0.25
2023-01-19T17:22:28.929Z,0.09
2023-01-19T17:27:35.469Z,0.23
2023-01-19T17:32:38.150Z,0.30
2023-01-19T17:37:40.285Z,0.38
2023-01-19T17:42:43.382Z,0.43
2023-01-19T17:47:48.248Z,0.47
2023-01-19T17:52:50.328Z,0.53
2023-01-19T17:57:53.890Z,0.64
2023-01-19T18:02:55.824Z,0.68
2023-01-19T18:07:59.858Z,0.72
2023-01-19T18:13:03.037Z,0.68
2023-01-19T18:18:05.257Z,0.65
2023-01-19T18:23:07.651Z,0.61
2023-01-19T18:28:11.074Z,0.65
2023-01-19T18:33:13.019Z,0.72
2023-01-19T18:38:15.633Z,0.75
2023-01-19T18:43:19.224Z,0.79
2023-01-19T18:48:21.386Z,0.84
2023-01-19T18:53:23.885Z,0.88
2023-01-19T18:58:27.197Z,0.94
2023-01-19T19:03:30.053Z,0.99
2023-01-19T19:08:33.360Z,1.04
2023-01-19T19:13:36.484Z,1.01
2023-01-19T19:18:39.632Z,1.01
2023-01-19T19:23:41.357Z,0.99
2023-01-19T19:28:44.897Z,1.00
2023-01-19T19:33:48.613Z,1.03
2023-01-19T19:38:51.110Z,1.01
2023-01-19T19:43:55.609Z,1.00
2023-01-19T19:48:58.238Z,0.98
2023-01-19T19:54:01.685Z,0.95
2023-01-19T19:59:05.089Z,0.87
2023-01-19T20:04:08.923Z,0.80
2023-01-19T20:09:12.544Z,0.78
2023-01-19T20:14:16.613Z,0.76
2023-01-19T20:19:18.837Z,0.75
2023-01-19T20:24:21.308Z,0.77
2023-01-19T20:29:24.685Z,0.77
2023-01-19T20:34:32.830Z,0.80
2023-01-19T20:39:35.336Z,0.85
2023-01-19T20:44:38.617Z,0.84
2023-01-19T20:49:41.527Z,0.88
2023-01-19T20:54:43.591Z,0.88
2023-01-19T20:59:47.088Z,0.88
2023-01-19T21:04:49.294Z,0.89
2023-01-19T21:09:51.377Z,0.86
2023-01-19T21:14:54.825Z,0.93
2023-01-19T21:19:56.917Z,1.47
2023-01-19T21:24:59.217Z,1.82
2023-01-19T21:30:02.780Z,1.97
2023-01-19T21:35:06.183Z,2.08
2023-01-19T21:40:09.402Z,2.01
2023-01-19T21:45:13.928Z,1.89
2023-01-19T21:50:16.475Z,2.07
2023-01-19T21:55:18.614Z,2.08
2023-01-19T22:00:22.248Z,1.99
2023-01-19T22:05:24.368Z,1.92
2023-01-19T22:10:27.169Z,1.97
2023-01-19T22:15:30.890Z,1.74
2023-01-19T22:20:33.234Z,1.57
2023-01-19T22:25:35.041Z,1.58
2023-01-19T22:30:38.575Z,1.77
2023-01-19T22:35:40.597Z,1.78
2023-01-19T22:40:42.484Z,1.76
2023-01-19T22:45:46.279Z,1.68
2023-01-19T22:50:48.761Z,1.57
2023-01-19T22:55:50.792Z,1.36
2023-01-19T23:00:54.323Z,1.45
2023-01-19T23:05:56.117Z,1.60
2023-01-19T23:10:58.655Z,1.65
2023-01-19T23:16:02.515Z,1.64
2023-01-19T23:21:07.903Z,1.53
2023-01-19T23:26:12.350Z,1.53
2023-01-19T23:31:17.940Z,1.69
2023-01-19T23:36:21.070Z,1.58
2023-01-19T23:41:24.230Z,1.53
2023-01-19T23:46:27.907Z,1.55
2023-01-19T23:51:31.461Z,1.57
2023-01-19T23:56:35.025Z,1.62
